Time;durP1;ratioP1;P1;durP2;ratioP2;P2;SDS_P1;SDS_P2;PMS_P1;PMS_P2;Temp;Humidity;BMP_temperature;BMP_pressure;BME280_temperature;BME280_humidity;BME280_pressure;Samples;Min_cycle;Max_cycle;Signal;HPM_P1;HPM_P2
2023/08/18 00:00:43;;;;;;;4.95;3.20;;;18.60;99.90;;;;;;5028982;28;20041;-62
2023/08/18 00:03:10;;;;;;;6.65;2.95;;;18.60;99.90;;;;;;5031385;28;20060;-62
2023/08/18 00:05:37;;;;;;;8.38;3.17;;;18.50;99.90;;;;;;5031199;28;20721;-62
2023/08/18 00:08:03;;;;;;;4.18;3.25;;;18.50;99.90;;;;;;5029638;28;20051;-61
2023/08/18 00:10:30;;;;;;;3.42;2.72;;;18.50;99.90;;;;;;5029218;28;20050;-62
2023/08/18 00:12:58;;;;;;;3.35;3.05;;;18.50;99.90;;;;;;5030730;28;20406;-61
2023/08/18 00:15:25;;;;;;;4.80;3.40;;;18.50;99.90;;;;;;5018904;28;20042;-61
2023/08/18 00:17:52;;;;;;;4.28;2.92;;;18.40;99.90;;;;;;5011949;28;20087;-60
2023/08/18 00:20:18;;;;;;;4.85;3.30;;;18.40;99.90;;;;;;5028893;28;20069;-61
2023/08/18 00:22:45;;;;;;;5.70;3.30;;;18.40;99.90;;;;;;5018295;28;20116;-60
2023/08/18 00:25:12;;;;;;;5.28;3.20;;;18.40;99.90;;;;;;5019040;28;20054;-60
2023/08/18 00:27:39;;;;;;;8.65;3.30;;;18.40;99.90;;;;;;5023515;28;20045;-61
2023/08/18 00:30:07;;;;;;;5.13;3.65;;;18.30;99.90;;;;;;5017718;28;20053;-61
2023/08/18 00:32:34;;;;;;;5.28;3.80;;;18.30;99.90;;;;;;5023701;28;20040;-62
2023/08/18 00:35:01;;;;;;;5.57;3.63;;;18.30;99.90;;;;;;5013174;28;20069;-61
2023/08/18 00:37:28;;;;;;;6.07;2.92;;;18.20;99.90;;;;;;5023609;28;20056;-60
2023/08/18 00:39:55;;;;;;;;;;;18.20;99.90;;;;;;5027316;28;20046;-61
2023/08/18 00:42:22;;;;;;;4.28;3.55;;;18.20;99.90;;;;;;5028184;28;19921;-62
2023/08/18 00:44:48;;;;;;;5.47;3.42;;;18.20;99.90;;;;;;5025706;28;20058;-61
2023/08/18 00:47:15;;;;;;;4.60;3.20;;;18.20;99.90;;;;;;5012287;28;20513;-62
2023/08/18 00:49:43;;;;;;;4.63;3.17;;;18.20;99.90;;;;;;5005561;28;20053;-62
2023/08/18 00:52:10;;;;;;;5.38;2.75;;;18.10;99.90;;;;;;5005450;28;20502;-61
2023/08/18 00:54:37;;;;;;;5.35;3.15;;;18.10;99.90;;;;;;5012571;28;20052;-62
2023/08/18 00:57:05;;;;;;;3.42;2.90;;;18.10;99.90;;;;;;5031928;28;20473;-61
2023/08/18 00:59:32;;;;;;;4.20;2.95;;;18.10;99.90;;;;;;5005003;28;20081;-60
2023/08/18 01:02:02;;;;;;;7.05;2.72;;;18.10;99.90;;;;;;5002003;28;20049;-62
2023/08/18 01:04:31;;;;;;;3.72;2.92;;;18.00;99.90;;;;;;5015297;28;20045;-60
2023/08/18 01:06:59;;;;;;;5.63;3.50;;;18.00;99.90;;;;;;5010132;28;20049;-62
2023/08/18 01:09:27;;;;;;;5.40;3.53;;;18.00;99.90;;;;;;5011460;28;20076;-61
2023/08/18 01:11:56;;;;;;;4.85;3.70;;;18.00;99.90;;;;;;5011340;28;20046;-61
2023/08/18 01:14:47;;;;;;;5.60;3.78;;;18.00;99.90;;;;;;5021580;28;20041;-62
2023/08/18 01:17:28;;;;;;;6.40;3.88;;;18.10;99.90;;;;;;5026433;28;20124;-62
2023/08/18 01:19:56;;;;;;;7.43;4.45;;;18.10;99.90;;;;;;5007641;28;20141;-62
2023/08/18 01:22:24;;;;;;;6.15;4.10;;;18.00;99.90;;;;;;5023293;28;20050;-62
2023/08/18 01:25:01;;;;;;;5.30;4.28;;;18.00;99.90;;;;;;5023516;28;20054;-60
2023/08/18 01:27:31;;;;;;;4.63;3.90;;;18.00;99.90;;;;;;5019466;28;20500;-61
2023/08/18 01:29:59;;;;;;;7.13;4.05;;;18.00;99.90;;;;;;5025592;28;20446;-60
2023/08/18 01:32:33;;;;;;;6.82;4.25;;;18.00;99.90;;;;;;5020146;28;20069;-62
2023/08/18 01:35:00;;;;;;;4.70;4.20;;;18.10;99.90;;;;;;5006554;28;20054;-62
2023/08/18 01:37:30;;;;;;;7.05;4.72;;;18.10;99.90;;;;;;5020051;28;20034;-62
2023/08/18 01:39:59;;;;;;;4.95;4.10;;;18.10;99.90;;;;;;5025359;28;20040;-61
2023/08/18 01:42:27;;;;;;;5.95;4.47;;;18.10;99.90;;;;;;5020615;28;20034;-61
2023/08/18 01:45:01;;;;;;;6.25;4.78;;;18.10;99.90;;;;;;5022299;28;20050;-61
2023/08/18 01:47:32;;;;;;;;;;;18.00;99.90;;;;;;5013550;28;20053;-61
2023/08/18 01:49:59;;;;;;;6.10;4.78;;;18.00;99.90;;;;;;5020242;28;19927;-59
2023/08/18 01:52:28;;;;;;;5.80;5.05;;;18.00;99.90;;;;;;5012961;28;20034;-62
2023/08/18 01:54:55;;;;;;;8.65;5.18;;;18.00;99.90;;;;;;5011444;28;20053;-61
2023/08/18 01:57:22;;;;;;;4.70;4.30;;;18.00;99.90;;;;;;5015453;28;20048;-62
2023/08/18 01:59:49;;;;;;;6.68;4.88;;;17.90;99.90;;;;;;5032516;28;20042;-62
2023/08/18 02:02:15;;;;;;;8.55;4.93;;;18.00;99.90;;;;;;5021376;28;20475;-59
2023/08/18 02:04:43;;;;;;;7.50;4.88;;;18.00;99.90;;;;;;5018678;28;20124;-61
2023/08/18 02:07:10;;;;;;;6.05;4.75;;;17.90;99.90;;;;;;5004016;28;20045;-60
2023/08/18 02:09:37;;;;;;;7.72;4.43;;;17.90;99.90;;;;;;5023506;28;20630;-61
2023/08/18 02:12:04;;;;;;;6.57;4.13;;;17.90;99.90;;;;;;5034098;28;20047;-61
2023/08/18 02:14:31;;;;;;;5.38;3.78;;;17.90;99.90;;;;;;5021505;28;20073;-61
2023/08/18 02:16:58;;;;;;;5.20;4.18;;;17.90;99.90;;;;;;5008781;28;20125;-61
2023/08/18 02:19:25;;;;;;;8.40;4.55;;;17.80;99.90;;;;;;5032893;28;20053;-61
2023/08/18 02:21:52;;;;;;;6.25;3.83;;;17.80;99.90;;;;;;5020741;28;20418;-62
2023/08/18 02:24:19;;;;;;;4.97;3.95;;;17.90;99.90;;;;;;5012105;28;20118;-62
2023/08/18 02:26:45;;;;;;;7.18;3.67;;;17.90;99.90;;;;;;5021446;28;20125;-61
2023/08/18 02:29:12;;;;;;;5.00;3.65;;;17.90;99.90;;;;;;5017908;28;20049;-61
2023/08/18 02:31:39;;;;;;;6.00;3.75;;;17.90;99.90;;;;;;5031696;28;20061;-60
2023/08/18 02:34:06;;;;;;;9.50;4.35;;;17.90;99.90;;;;;;5024299;28;20088;-62
2023/08/18 02:36:36;;;;;;;8.35;3.95;;;17.90;99.90;;;;;;5014815;28;20125;-61
2023/08/18 02:39:03;;;;;;;5.60;3.80;;;17.90;99.90;;;;;;5033705;28;20116;-60
2023/08/18 02:41:29;;;;;;;6.55;3.40;;;17.90;99.90;;;;;;5024521;28;20065;-60
2023/08/18 02:43:56;;;;;;;4.60;3.88;;;17.90;99.90;;;;;;5014478;28;20046;-61
2023/08/18 02:46:23;;;;;;;4.25;3.45;;;17.90;99.90;;;;;;5006232;28;20044;-59
2023/08/18 02:48:50;;;;;;;4.88;3.45;;;17.90;99.90;;;;;;5008440;28;20037;-61
2023/08/18 02:51:18;;;;;;;5.75;3.88;;;17.90;99.90;;;;;;5029684;28;20041;-61
2023/08/18 02:53:48;;;;;;;5.55;3.90;;;17.90;99.90;;;;;;5031673;28;20045;-61
2023/08/18 02:56:16;;;;;;;8.52;3.80;;;17.90;99.90;;;;;;5021279;28;20048;-61
2023/08/18 02:58:43;;;;;;;6.30;4.03;;;17.90;99.90;;;;;;5033308;28;20394;-59
2023/08/18 03:01:09;;;;;;;5.97;3.78;;;17.90;99.90;;;;;;5019661;28;20049;-62
2023/08/18 03:03:36;;;;;;;10.68;4.13;;;17.90;99.90;;;;;;5003726;28;20060;-61
2023/08/18 03:06:05;;;;;;;6.93;4.38;;;17.90;99.90;;;;;;5024094;28;20073;-62
2023/08/18 03:08:32;;;;;;;10.13;4.22;;;17.90;99.90;;;;;;5011118;28;20070;-60
2023/08/18 03:11:01;;;;;;;6.30;3.60;;;17.90;99.90;;;;;;5020224;28;20045;-61
2023/08/18 03:13:28;;;;;;;7.65;4.18;;;17.80;99.90;;;;;;5031386;28;20038;-61
2023/08/18 03:15:55;;;;;;;6.68;4.18;;;17.80;99.90;;;;;;5023545;28;20133;-61
2023/08/18 03:18:22;;;;;;;5.63;3.67;;;17.90;99.90;;;;;;5028366;28;20038;-60
2023/08/18 03:20:49;;;;;;;6.15;3.45;;;17.90;99.90;;;;;;5012210;28;20061;-61
2023/08/18 03:23:17;;;;;;;;;;;17.90;99.90;;;;;;5013487;28;20376;-62
2023/08/18 03:25:44;;;;;;;8.00;3.75;;;17.90;99.90;;;;;;4998079;28;19928;-61
2023/08/18 03:28:11;;;;;;;4.43;3.58;;;18.00;99.90;;;;;;5013884;28;20069;-62
2023/08/18 03:30:39;;;;;;;5.00;3.55;;;18.00;99.90;;;;;;5027700;28;20096;-61
2023/08/18 03:33:07;;;;;;;4.38;3.65;;;18.00;99.90;;;;;;5000359;28;20048;-61
2023/08/18 03:35:36;;;;;;;5.55;3.40;;;18.00;99.90;;;;;;5026246;28;20043;-60
2023/08/18 03:38:04;;;;;;;4.10;3.45;;;18.00;99.90;;;;;;5027917;28;20096;-62
2023/08/18 03:40:32;;;;;;;7.35;3.50;;;18.00;99.90;;;;;;5027385;28;20495;-61
2023/08/18 03:42:59;;;;;;;5.85;3.42;;;18.00;99.90;;;;;;5012671;28;20042;-60
2023/08/18 03:45:26;;;;;;;;;;;18.00;99.90;;;;;;5013914;28;20046;-62
2023/08/18 03:47:54;;;;;;;4.60;2.85;;;18.00;99.90;;;;;;5006865;28;19921;-62
2023/08/18 03:50:22;;;;;;;7.13;3.40;;;18.00;99.90;;;;;;5029852;28;20371;-61
2023/08/18 03:52:49;;;;;;;5.45;3.47;;;18.00;99.90;;;;;;5006016;28;20033;-61
2023/08/18 03:55:18;;;;;;;4.45;3.53;;;18.00;99.90;;;;;;5018944;28;20085;-60
2023/08/18 03:57:45;;;;;;;5.43;3.42;;;18.00;99.90;;;;;;5025290;28;20057;-61
2023/08/18 04:00:12;;;;;;;5.15;3.33;;;18.00;99.90;;;;;;5017916;28;20065;-60
2023/08/18 04:02:42;;;;;;;4.88;3.30;;;18.00;99.90;;;;;;5020773;28;20104;-61
2023/08/18 04:05:14;;;;;;;3.97;3.53;;;18.00;99.90;;;;;;5025272;28;20053;-61
2023/08/18 04:07:43;;;;;;;5.57;3.60;;;18.00;99.90;;;;;;5027729;28;20518;-61
2023/08/18 04:10:11;;;;;;;6.05;3.50;;;18.00;99.90;;;;;;5009934;28;20042;-61
2023/08/18 04:12:38;;;;;;;4.88;2.83;;;18.00;99.90;;;;;;5016702;28;20041;-61
2023/08/18 04:15:05;;;;;;;6.30;3.47;;;18.00;99.90;;;;;;5012436;28;20050;-60
2023/08/18 04:17:32;;;;;;;;;;;18.00;99.90;;;;;;5015469;28;20479;-60
2023/08/18 04:19:59;;;;;;;5.47;3.15;;;18.00;99.90;;;;;;4998538;28;19943;-61
2023/08/18 04:22:26;;;;;;;4.00;3.30;;;18.00;99.90;;;;;;5031902;28;20041;-59
2023/08/18 04:24:54;;;;;;;4.47;3.80;;;18.10;99.90;;;;;;5021463;28;20045;-61
2023/08/18 04:27:20;;;;;;;6.88;3.25;;;18.00;99.90;;;;;;5018932;28;20129;-59
2023/08/18 04:29:47;;;;;;;3.63;3.28;;;18.10;99.90;;;;;;5018130;28;20047;-62
2023/08/18 04:32:15;;;;;;;7.45;3.38;;;18.10;99.90;;;;;;5029267;28;20132;-61
2023/08/18 04:34:42;;;;;;;8.80;3.55;;;18.10;99.90;;;;;;5028214;28;20434;-62
2023/08/18 04:37:09;;;;;;;7.32;3.20;;;18.10;99.90;;;;;;5026818;28;20108;-61
2023/08/18 04:39:36;;;;;;;4.57;3.45;;;18.10;99.90;;;;;;5019329;28;20034;-62
2023/08/18 04:42:03;;;;;;;;;;;18.10;99.90;;;;;;5019243;28;20037;-59
2023/08/18 04:44:33;;;;;;;7.03;2.85;;;18.10;99.90;;;;;;5025903;28;19928;-62
2023/08/18 04:47:03;;;;;;;7.95;3.50;;;18.20;99.90;;;;;;4997954;28;20045;-61
2023/08/18 04:49:30;;;;;;;4.20;3.70;;;18.30;99.90;;;;;;5020759;28;20087;-61
2023/08/18 04:51:57;;;;;;;8.25;3.50;;;18.20;99.90;;;;;;5014191;28;20045;-60
2023/08/18 04:54:24;;;;;;;4.20;3.47;;;18.30;99.90;;;;;;5049199;23;20061;-62
2023/08/18 04:56:58;;;;;;;6.47;3.47;;;18.30;99.90;;;;;;5063495;28;20529;-61
2023/08/18 04:59:26;;;;;;;7.68;3.60;;;18.30;99.90;;;;;;5048485;28;20067;-61
2023/08/18 05:01:56;;;;;;;5.25;3.55;;;18.40;99.90;;;;;;5039727;28;20120;-61
2023/08/18 05:04:23;;;;;;;;;;;18.40;99.90;;;;;;5037103;28;20048;-61
2023/08/18 05:06:50;;;;;;;3.92;3.53;;;18.40;99.90;;;;;;5036464;28;19927;-60
2023/08/18 05:09:18;;;;;;;6.88;3.35;;;18.40;99.90;;;;;;5059030;28;20052;-61
2023/08/18 05:11:44;;;;;;;7.63;3.70;;;18.40;99.90;;;;;;5058105;28;20056;-60
2023/08/18 05:14:12;;;;;;;5.90;3.25;;;18.50;99.90;;;;;;5071173;28;20044;-61
2023/08/18 05:16:39;;;;;;;4.28;3.85;;;18.50;99.90;;;;;;5053424;28;20144;-62
2023/08/18 05:19:06;;;;;;;9.18;3.97;;;18.50;99.90;;;;;;5051902;28;20541;-61
2023/08/18 05:21:32;;;;;;;8.98;4.43;;;18.50;99.90;;;;;;5063360;28;20047;-60
2023/08/18 05:23:59;;;;;;;4.38;3.90;;;18.50;99.90;;;;;;5064962;28;20033;-61
2023/08/18 05:26:26;;;;;;;7.85;3.97;;;18.50;99.90;;;;;;5065451;28;20040;-61
2023/08/18 05:28:53;;;;;;;6.13;3.20;;;18.50;99.90;;;;;;5071563;28;20037;-62
2023/08/18 05:31:20;;;;;;;3.80;3.35;;;18.60;99.90;;;;;;5060644;28;20474;-62
2023/08/18 05:33:47;;;;;;;5.63;3.25;;;18.60;99.90;;;;;;5068471;28;20054;-61
2023/08/18 05:36:13;;;;;;;6.07;3.80;;;18.60;99.90;;;;;;5054343;28;20048;-62
2023/08/18 05:38:40;;;;;;;4.15;3.15;;;18.70;99.90;;;;;;5061923;28;20123;-62
2023/08/18 05:41:13;;;;;;;8.80;3.22;;;18.70;99.90;;;;;;5066653;28;20051;-60
2023/08/18 05:43:41;;;;;;;3.67;3.03;;;18.70;99.90;;;;;;5063892;28;20394;-61
2023/08/18 05:46:08;;;;;;;6.05;3.00;;;18.70;99.90;;;;;;5053917;28;20123;-61
2023/08/18 05:48:35;;;;;;;4.13;2.85;;;18.70;99.90;;;;;;5054982;28;20045;-61
2023/08/18 05:51:03;;;;;;;9.57;3.95;;;18.70;99.90;;;;;;5073280;28;20036;-61
2023/08/18 05:53:31;;;;;;;4.65;3.25;;;18.70;99.90;;;;;;5067738;28;20509;-61
2023/08/18 05:55:58;;;;;;;3.88;2.97;;;18.70;99.90;;;;;;5070519;28;20135;-61
2023/08/18 05:58:25;;;;;;;5.95;3.30;;;18.80;99.90;;;;;;5063065;28;20036;-61
2023/08/18 06:00:51;;;;;;;7.95;3.00;;;18.80;99.90;;;;;;5073125;28;20064;-61
2023/08/18 06:03:21;;;;;;;4.72;3.08;;;18.90;99.90;;;;;;5072458;28;20040;-61
2023/08/18 06:05:48;;;;;;;3.70;2.67;;;18.90;99.90;;;;;;5069318;28;20052;-60
2023/08/18 06:08:15;;;;;;;3.30;2.50;;;19.10;99.90;;;;;;5073047;28;20045;-61
2023/08/18 06:10:42;;;;;;;;;;;19.10;99.90;;;;;;5072341;28;20047;-62
2023/08/18 06:13:09;;;;;;;4.88;2.70;;;19.10;99.90;;;;;;5069396;28;19924;-61
2023/08/18 06:15:37;;;;;;;2.83;2.13;;;19.10;99.90;;;;;;5053513;28;20048;-62
2023/08/18 06:18:04;;;;;;;2.78;2.45;;;19.20;99.90;;;;;;5053759;28;20032;-61
2023/08/18 06:20:30;;;;;;;;;;;19.30;99.90;;;;;;5053116;28;20053;-61
2023/08/18 06:22:58;;;;;;;9.63;2.88;;;19.30;99.90;;;;;;5072645;28;19927;-61
2023/08/18 06:25:25;;;;;;;4.18;2.55;;;19.40;99.90;;;;;;5056809;28;20047;-61
2023/08/18 06:27:52;;;;;;;3.47;2.42;;;19.50;99.90;;;;;;5059157;28;20056;-61
2023/08/18 06:30:19;;;;;;;6.30;2.65;;;19.40;99.90;;;;;;5054406;28;20397;-61
2023/08/18 06:32:46;;;;;;;7.22;2.70;;;19.50;99.90;;;;;;5056453;28;20045;-60
2023/08/18 06:35:13;;;;;;;;;;;19.50;99.90;;;;;;5053686;28;20049;-62
2023/08/18 06:37:39;;;;;;;5.40;2.53;;;19.50;99.90;;;;;;5061515;28;20264;-61
2023/08/18 06:40:07;;;;;;;2.90;2.38;;;19.60;99.90;;;;;;5060644;28;20029;-60
2023/08/18 06:42:34;;;;;;;3.65;2.10;;;19.70;99.90;;;;;;5061453;28;20037;-60
2023/08/18 06:45:00;;;;;;;2.80;2.10;;;19.80;99.90;;;;;;5066014;28;20045;-61
2023/08/18 06:47:27;;;;;;;4.07;2.42;;;19.80;99.90;;;;;;5060901;28;20493;-61
2023/08/18 06:49:54;;;;;;;3.70;2.05;;;19.80;99.90;;;;;;5053220;28;20045;-61
2023/08/18 06:52:21;;;;;;;3.67;2.28;;;19.80;99.90;;;;;;5066627;28;20116;-61
2023/08/18 06:54:48;;;;;;;4.97;2.60;;;19.70;99.90;;;;;;5058032;28;20053;-60
2023/08/18 06:57:15;;;;;;;3.22;2.30;;;19.70;99.90;;;;;;5057670;28;20110;-61
2023/08/18 06:59:41;;;;;;;2.92;2.38;;;19.60;99.90;;;;;;5064263;28;20040;-61
2023/08/18 07:02:08;;;;;;;3.97;2.20;;;19.70;99.90;;;;;;5066214;28;20492;-62
2023/08/18 07:04:35;;;;;;;2.72;1.95;;;19.80;99.90;;;;;;5052020;28;20052;-62
2023/08/18 07:07:03;;;;;;;4.10;2.58;;;19.90;99.90;;;;;;5063580;28;20036;-61
2023/08/18 07:09:30;;;;;;;4.60;2.33;;;20.00;99.90;;;;;;5062782;28;20068;-61
2023/08/18 07:11:56;;;;;;;4.22;2.30;;;20.00;99.90;;;;;;5072731;28;20051;-61
2023/08/18 07:14:23;;;;;;;4.03;2.20;;;20.00;99.90;;;;;;5058212;28;20043;-61
2023/08/18 07:16:50;;;;;;;5.43;2.10;;;20.10;99.90;;;;;;5052443;28;20041;-61
2023/08/18 07:19:16;;;;;;;2.67;2.25;;;20.30;99.90;;;;;;5058859;28;20071;-61
2023/08/18 07:21:43;;;;;;;4.13;2.55;;;20.40;99.90;;;;;;5064041;28;20115;-61
2023/08/18 07:24:10;;;;;;;5.50;2.33;;;20.40;99.90;;;;;;5065774;28;20037;-62
2023/08/18 07:26:37;;;;;;;3.92;2.35;;;20.40;99.90;;;;;;5065105;28;20044;-61
2023/08/18 07:29:07;;;;;;;4.22;2.33;;;20.30;99.90;;;;;;5058079;28;20060;-61
2023/08/18 07:31:34;;;;;;;3.88;2.80;;;20.40;99.90;;;;;;5062684;28;20032;-60
2023/08/18 07:34:01;;;;;;;5.18;2.55;;;20.50;99.90;;;;;;5053134;28;20052;-62
2023/08/18 07:36:28;;;;;;;2.22;2.03;;;20.50;99.90;;;;;;5049696;28;20045;-61
2023/08/18 07:38:54;;;;;;;3.47;2.25;;;20.60;99.90;;;;;;5051543;28;20037;-62
2023/08/18 07:41:21;;;;;;;5.45;2.10;;;20.70;99.90;;;;;;5067604;28;20041;-59
2023/08/18 07:43:48;;;;;;;2.25;2.00;;;20.80;99.90;;;;;;5051948;28;20049;-60
2023/08/18 07:46:15;;;;;;;3.70;2.78;;;21.00;99.90;;;;;;5051019;28;20051;-62
2023/08/18 07:48:44;;;;;;;2.45;2.25;;;21.10;99.90;;;;;;5072059;28;20045;-61
2023/08/18 07:51:10;;;;;;;2.28;2.08;;;21.10;99.90;;;;;;5060741;28;20120;-62
2023/08/18 07:53:37;;;;;;;2.20;2.00;;;21.10;99.90;;;;;;5051907;28;20059;-61
2023/08/18 07:56:04;;;;;;;2.70;2.30;;;21.30;99.90;;;;;;5056057;28;20036;-61
2023/08/18 07:58:31;;;;;;;2.47;2.28;;;21.40;99.90;;;;;;5069718;28;20032;-61
2023/08/18 08:00:58;;;;;;;2.95;2.10;;;21.50;99.90;;;;;;5054408;28;20041;-61
2023/08/18 08:03:25;;;;;;;2.10;1.90;;;21.60;99.90;;;;;;5064965;28;20090;-61
2023/08/18 08:05:53;;;;;;;2.47;2.10;;;21.70;99.90;;;;;;5053572;28;20048;-61
2023/08/18 08:08:19;;;;;;;3.58;2.00;;;21.70;99.90;;;;;;5060368;28;20052;-60
2023/08/18 08:10:46;;;;;;;2.35;2.15;;;21.60;99.90;;;;;;5053805;28;20045;-61
2023/08/18 08:13:13;;;;;;;4.63;2.47;;;21.70;99.90;;;;;;5068037;28;20045;-61
2023/08/18 08:15:42;;;;;;;2.35;2.15;;;21.80;99.90;;;;;;5054111;28;20516;-61
2023/08/18 08:18:09;;;;;;;3.67;2.30;;;21.90;99.90;;;;;;5060955;28;20064;-62
2023/08/18 08:20:38;;;;;;;3.47;1.80;;;22.00;99.90;;;;;;5057318;28;20040;-60
2023/08/18 08:23:05;;;;;;;1.88;1.77;;;22.00;99.90;;;;;;5061225;28;20047;-61
2023/08/18 08:25:33;;;;;;;4.78;2.17;;;22.10;99.90;;;;;;5054809;28;20397;-61
2023/08/18 08:28:04;;;;;;;2.95;1.65;;;22.20;99.90;;;;;;5060475;28;20124;-62
2023/08/18 08:30:31;;;;;;;2.05;1.85;;;22.40;99.90;;;;;;5057746;28;20408;-61
2023/08/18 08:33:03;;;;;;;3.50;2.40;;;22.50;99.90;;;;;;5069837;28;20043;-61
2023/08/18 08:35:31;;;;;;;4.30;1.70;;;22.40;99.90;;;;;;5053283;28;20400;-62
2023/08/18 08:37:58;;;;;;;;;;;22.50;99.90;;;;;;5064636;28;20755;-60
2023/08/18 08:40:25;;;;;;;2.10;1.70;;;22.40;99.90;;;;;;5071499;28;19920;-62
2023/08/18 08:42:56;;;;;;;;;;;22.70;99.90;;;;;;5071802;28;20040;-61
2023/08/18 08:45:30;;;;;;;3.10;2.10;;;22.80;99.90;;;;;;5055991;28;19924;-61
2023/08/18 08:47:59;;;;;;;3.70;2.33;;;23.00;99.90;;;;;;5070970;28;20052;-62
2023/08/18 08:50:29;;;;;;;4.30;2.20;;;23.10;99.90;;;;;;5059466;28;20374;-62
2023/08/18 08:53:00;;;;;;;2.72;1.75;;;23.30;99.90;;;;;;5050990;28;20047;-62
2023/08/18 08:55:31;;;;;;;2.30;2.10;;;23.50;99.90;;;;;;5074738;28;20119;-61
2023/08/18 08:58:00;;;;;;;2.75;2.10;;;23.60;99.90;;;;;;5058194;28;20047;-62
2023/08/18 09:00:27;;;;;;;2.95;2.13;;;23.60;99.90;;;;;;5055419;28;21872;-61
2023/08/18 09:02:58;;;;;;;3.03;2.40;;;23.60;99.90;;;;;;5071552;28;20056;-61
2023/08/18 09:05:28;;;;;;;4.53;2.30;;;23.40;99.90;;;;;;5061979;28;20546;-62
2023/08/18 09:07:55;;;;;;;3.67;2.75;;;23.50;99.90;;;;;;5055369;28;20059;-61
2023/08/18 09:10:22;;;;;;;3.75;2.63;;;23.60;99.90;;;;;;5061284;28;20047;-61
2023/08/18 09:12:49;;;;;;;3.53;2.35;;;23.60;99.90;;;;;;5055222;28;20048;-61
2023/08/18 09:15:16;;;;;;;4.80;2.33;;;23.70;99.90;;;;;;5054006;28;20043;-61
2023/08/18 09:17:46;;;;;;;3.22;2.65;;;23.70;99.90;;;;;;5062900;28;20048;-60
2023/08/18 09:20:14;;;;;;;2.30;1.95;;;23.90;99.90;;;;;;5054994;28;20115;-62
2023/08/18 09:22:41;;;;;;;4.15;2.30;;;24.10;99.90;;;;;;5063483;28;20045;-60
2023/08/18 09:25:12;;;;;;;3.00;2.17;;;24.40;99.90;;;;;;5055935;28;20037;-60
2023/08/18 09:27:39;;;;;;;5.15;2.60;;;24.40;99.90;;;;;;5068929;28;20382;-62
2023/08/18 09:30:06;;;;;;;3.20;2.03;;;24.60;99.90;;;;;;5054481;28;20048;-61
2023/08/18 09:32:36;;;;;;;2.42;2.17;;;24.60;99.90;;;;;;5054421;28;20044;-62
2023/08/18 09:35:09;;;;;;;4.97;2.20;;;24.70;99.90;;;;;;5063011;28;20049;-62
2023/08/18 09:37:36;;;;;;;2.53;1.88;;;24.80;99.90;;;;;;5064630;28;20068;-62
2023/08/18 09:40:04;;;;;;;2.28;1.95;;;24.80;99.90;;;;;;5074075;28;20048;-62
2023/08/18 09:42:31;;;;;;;2.15;1.88;;;24.80;99.90;;;;;;5053656;28;20041;-62
2023/08/18 09:44:58;;;;;;;4.80;1.92;;;24.80;99.90;;;;;;5054134;28;20063;-61
2023/08/18 09:47:28;;;;;;;2.85;2.22;;;24.80;99.90;;;;;;5057108;28;20501;-62
2023/08/18 09:49:58;;;;;;;2.30;2.10;;;24.70;99.90;;;;;;5066975;28;20052;-62
2023/08/18 09:52:28;;;;;;;3.00;2.10;;;24.90;99.90;;;;;;5054186;28;20461;-61
2023/08/18 09:55:11;;;;;;;2.75;1.98;;;25.30;99.90;;;;;;5052661;28;20064;-62
2023/08/18 09:57:49;;;;;;;4.53;2.00;;;25.30;99.90;;;;;;5058992;28;20041;-61
2023/08/18 10:00:19;;;;;;;4.55;2.13;;;25.30;99.90;;;;;;5053760;28;20068;-62
2023/08/18 10:02:49;;;;;;;1.92;1.83;;;25.30;99.90;;;;;;5054455;28;20372;-61
2023/08/18 10:05:16;;;;;;;5.15;2.20;;;25.50;99.90;;;;;;5066813;28;20481;-61
2023/08/18 10:07:43;;;;;;;;;;;25.50;99.90;;;;;;5059398;28;20124;-62
2023/08/18 10:10:11;;;;;;;2.58;2.08;;;25.60;99.90;;;;;;5059646;28;19920;-61
2023/08/18 10:12:38;;;;;;;3.63;2.00;;;25.40;99.90;;;;;;5064493;28;20029;-60
2023/08/18 10:15:06;;;;;;;4.30;2.13;;;25.60;99.90;;;;;;5069517;28;20047;-61
2023/08/18 10:17:32;;;;;;;3.05;2.30;;;25.80;99.90;;;;;;5062029;28;20055;-60
2023/08/18 10:20:00;;;;;;;5.05;2.35;;;25.50;99.90;;;;;;5067042;28;20460;-60
2023/08/18 10:22:30;;;;;;;2.20;2.00;;;25.20;99.90;;;;;;5068353;28;20044;-62
2023/08/18 10:24:57;;;;;;;5.80;2.10;;;25.30;99.90;;;;;;5068506;28;20051;-61
2023/08/18 10:27:27;;;;;;;2.72;2.17;;;25.60;99.90;;;;;;5066375;28;20044;-61
2023/08/18 10:30:02;;;;;;;4.63;2.50;;;25.80;99.90;;;;;;5065893;28;20035;-61
2023/08/18 10:32:31;;;;;;;2.30;2.10;;;26.00;99.90;;;;;;5070404;28;20113;-61
2023/08/18 10:35:23;;;;;;;2.40;2.20;;;26.00;99.90;;;;;;5070917;28;20123;-61
2023/08/18 10:37:50;;;;;;;2.45;2.10;;;26.20;99.90;;;;;;5071315;28;20037;-61
2023/08/18 10:40:34;;;;;;;3.67;2.28;;;26.10;99.90;;;;;;5070059;28;20053;-61
2023/08/18 10:43:07;;;;;;;2.33;1.98;;;26.20;99.90;;;;;;5069272;28;20047;-62
2023/08/18 10:45:35;;;;;;;2.25;1.90;;;26.10;99.90;;;;;;5071639;28;20052;-61
2023/08/18 10:48:04;;;;;;;5.75;1.95;;;26.40;99.90;;;;;;5068419;28;20047;-61
2023/08/18 10:50:36;;;;;;;2.42;1.92;;;26.40;99.90;;;;;;5070905;28;20033;-61
2023/08/18 10:53:04;;;;;;;4.05;2.35;;;26.40;99.90;;;;;;5070667;28;20036;-61
2023/08/18 10:55:32;;;;;;;2.03;1.85;;;26.60;99.90;;;;;;5070554;28;20042;-61
2023/08/18 10:57:59;;;;;;;4.40;1.98;;;26.60;99.90;;;;;;5068967;28;20047;-61
2023/08/18 11:00:34;;;;;;;3.33;1.83;;;26.60;99.90;;;;;;5069373;28;20045;-61
2023/08/18 11:03:03;;;;;;;1.98;1.80;;;26.60;99.90;;;;;;5070799;28;20051;-62
2023/08/18 11:05:31;;;;;;;1.73;1.58;;;26.70;99.90;;;;;;5068698;28;21457;-61
2023/08/18 11:07:59;;;;;;;2.28;1.70;;;26.90;99.90;;;;;;5068521;28;20125;-61
2023/08/18 11:10:27;;;;;;;1.77;1.63;;;27.10;99.90;;;;;;5071860;28;20405;-61
2023/08/18 11:12:57;;;;;;;2.22;1.65;;;27.30;99.90;;;;;;5071865;28;20115;-62
2023/08/18 11:15:24;;;;;;;1.80;1.70;;;27.40;99.90;;;;;;5069611;28;20036;-61
2023/08/18 11:17:51;;;;;;;3.38;2.00;;;27.20;99.90;;;;;;5071804;28;20044;-61
2023/08/18 11:20:19;;;;;;;1.90;1.70;;;27.20;99.90;;;;;;5057839;28;20106;-61
2023/08/18 11:22:48;;;;;;;1.40;1.30;;;27.10;99.90;;;;;;5066447;28;20070;-61
2023/08/18 11:25:16;;;;;;;2.85;1.60;;;27.10;99.90;;;;;;5066042;28;20053;-61
2023/08/18 11:27:45;;;;;;;1.90;1.80;;;27.30;99.90;;;;;;5070013;28;20057;-61
2023/08/18 11:30:13;;;;;;;3.25;1.65;;;27.60;99.90;;;;;;5060612;28;20064;-61
2023/08/18 11:32:41;;;;;;;2.00;1.65;;;27.60;99.70;;;;;;5066634;28;20442;-61
2023/08/18 11:35:09;;;;;;;1.85;1.55;;;27.70;99.40;;;;;;5065784;28;20040;-61
2023/08/18 11:37:41;;;;;;;2.38;1.70;;;27.90;99.10;;;;;;5068409;28;20604;-61
2023/08/18 11:40:16;;;;;;;3.17;1.45;;;28.10;98.90;;;;;;5071624;28;20499;-60
2023/08/18 11:42:45;;;;;;;1.63;1.52;;;28.00;97.80;;;;;;5067876;28;20053;-62
2023/08/18 11:45:16;;;;;;;2.25;1.60;;;28.00;97.60;;;;;;5067349;28;20043;-62
2023/08/18 11:47:46;;;;;;;1.55;1.40;;;28.10;97.90;;;;;;5070006;28;20105;-62
2023/08/18 11:50:19;;;;;;;1.33;1.10;;;28.30;96.70;;;;;;5069007;28;20041;-62
2023/08/18 11:52:50;;;;;;;2.63;1.70;;;28.20;96.60;;;;;;5069079;28;20044;-60
2023/08/18 11:55:32;;;;;;;2.70;1.60;;;28.20;96.60;;;;;;5069883;28;20047;-60
2023/08/18 11:58:02;;;;;;;3.17;1.65;;;28.10;96.20;;;;;;5066993;28;20465;-61
2023/08/18 12:00:37;;;;;;;2.35;1.35;;;28.10;97.20;;;;;;5068868;28;20048;-62
2023/08/18 12:03:05;;;;;;;3.05;1.38;;;28.20;96.50;;;;;;5068485;28;20040;-61
2023/08/18 12:05:38;;;;;;;1.90;1.40;;;28.30;95.60;;;;;;5062852;28;20045;-62
2023/08/18 12:08:09;;;;;;;4.25;1.45;;;28.30;95.40;;;;;;5071587;28;20068;-62
2023/08/18 12:10:37;;;;;;;4.60;1.67;;;28.30;95.80;;;;;;5062697;28;20044;-61
2023/08/18 12:13:04;;;;;;;1.58;1.48;;;28.30;96.70;;;;;;5065130;28;20044;-61
2023/08/18 12:15:31;;;;;;;3.15;1.50;;;28.30;96.00;;;;;;5062581;28;20481;-61
2023/08/18 12:17:58;;;;;;;2.97;1.42;;;28.30;97.20;;;;;;5064613;28;20041;-61
2023/08/18 12:20:25;;;;;;;;;;;28.40;96.90;;;;;;5062233;28;20086;-62
2023/08/18 12:22:53;;;;;;;2.28;1.80;;;28.50;98.00;;;;;;5051428;28;19921;-60
2023/08/18 12:25:22;;;;;;;1.70;1.60;;;28.60;98.20;;;;;;5068321;28;20036;-61
2023/08/18 12:27:50;;;;;;;4.88;2.00;;;28.60;98.00;;;;;;5065593;28;20051;-60
2023/08/18 12:30:18;;;;;;;3.25;1.77;;;28.60;98.00;;;;;;5064035;28;20497;-62
2023/08/18 12:32:47;;;;;;;2.65;1.88;;;28.60;97.90;;;;;;5070818;28;20493;-61
2023/08/18 12:35:15;;;;;;;4.22;1.98;;;28.60;99.00;;;;;;5047934;28;20086;-62
2023/08/18 12:37:42;;;;;;;6.95;1.98;;;28.60;98.10;;;;;;5050123;28;20139;-60
2023/08/18 12:40:10;;;;;;;2.75;1.98;;;28.80;97.60;;;;;;5060574;28;20354;-61
2023/08/18 12:42:38;;;;;;;3.22;1.92;;;28.80;96.80;;;;;;5069384;28;23669;-62
2023/08/18 12:45:06;;;;;;;4.32;1.92;;;28.90;96.90;;;;;;5070811;28;20128;-60
2023/08/18 12:47:33;;;;;;;1.80;1.70;;;29.00;96.50;;;;;;5071092;28;20043;-62
2023/08/18 12:50:00;;;;;;;5.45;2.20;;;29.20;95.90;;;;;;5064527;28;20386;-62
2023/08/18 12:52:27;;;;;;;2.67;1.95;;;29.20;95.70;;;;;;5060926;28;20488;-62
2023/08/18 12:54:55;;;;;;;2.15;1.98;;;29.20;96.20;;;;;;5064806;28;20118;-62